createdAt,value
2023-10-27T00:01:49.262Z,7.55
2023-10-27T00:06:54.186Z,7.30
2023-10-27T00:11:56.043Z,5.68
2023-10-27T00:16:58.617Z,4.80
2023-10-27T00:22:00.305Z,6.30
2023-10-27T00:27:02.062Z,5.38
2023-10-27T00:32:04.160Z,5.53
2023-10-27T00:37:05.921Z,5.13
2023-10-27T00:42:08.071Z,6.32
2023-10-27T00:47:10.069Z,5.63
2023-10-27T00:52:14.137Z,4.00
2023-10-27T00:57:16.139Z,3.78
2023-10-27T01:02:23.872Z,5.75
2023-10-27T01:07:25.734Z,6.35
2023-10-27T01:12:27.409Z,5.55
2023-10-27T01:17:29.154Z,5.22
2023-10-27T01:22:35.091Z,8.23
2023-10-27T01:27:36.898Z,5.28
2023-10-27T01:32:39.300Z,5.05
2023-10-27T01:37:41.146Z,5.80
2023-10-27T01:42:42.993Z,6.07
2023-10-27T01:47:44.824Z,5.03
2023-10-27T01:52:46.975Z,5.80
2023-10-27T01:57:48.701Z,5.68
2023-10-27T02:02:53.502Z,5.43
2023-10-27T02:07:56.422Z,5.10
2023-10-27T02:12:58.132Z,4.88
2023-10-27T02:17:59.891Z,6.35
2023-10-27T02:23:01.746Z,7.18
2023-10-27T02:28:03.619Z,4.90
2023-10-27T02:33:05.419Z,4.53
2023-10-27T02:38:07.237Z,6.20
2023-10-27T02:43:10.205Z,4.28
2023-10-27T02:48:12.593Z,3.70
2023-10-27T02:53:17.237Z,3.63
2023-10-27T02:58:19.084Z,4.03
2023-10-27T03:03:20.953Z,3.92
2023-10-27T03:08:22.730Z,5.13
2023-10-27T03:13:24.475Z,4.60
2023-10-27T03:18:26.513Z,4.53
2023-10-27T03:23:28.677Z,5.30
2023-10-27T03:28:31.386Z,5.53
2023-10-27T03:33:34.605Z,5.25
2023-10-27T03:38:36.360Z,4.53
2023-10-27T03:43:38.084Z,4.13
2023-10-27T03:48:40.408Z,5.32
2023-10-27T03:53:42.260Z,4.43
2023-10-27T03:58:48.006Z,5.00
2023-10-27T04:03:50.338Z,3.88
2023-10-27T04:08:52.035Z,6.63
2023-10-27T04:13:53.662Z,6.18
2023-10-27T04:18:55.384Z,7.40
2023-10-27T04:23:57.594Z,15.00
2023-10-27T04:28:59.248Z,5.53
2023-10-27T04:34:01.422Z,5.80
2023-10-27T04:39:05.170Z,7.28
2023-10-27T04:44:07.144Z,6.90
2023-10-27T04:49:08.908Z,6.28
2023-10-27T04:54:10.609Z,6.15
2023-10-27T04:59:12.256Z,4.80
2023-10-27T05:04:14.092Z,5.07
2023-10-27T05:09:17.064Z,4.80
2023-10-27T05:14:20.245Z,5.63
2023-10-27T05:19:22.582Z,7.90
2023-10-27T05:24:30.611Z,6.25
2023-10-27T05:29:33.789Z,9.60
2023-10-27T05:34:35.610Z,7.47
2023-10-27T05:39:37.313Z,5.53
2023-10-27T05:44:41.303Z,9.90
2023-10-27T05:49:43.073Z,7.65
2023-10-27T05:54:46.515Z,13.27
2023-10-27T05:59:49.895Z,7.68
2023-10-27T06:04:52.261Z,8.40
2023-10-27T06:09:54.126Z,5.20
2023-10-27T06:14:55.813Z,7.85
2023-10-27T06:20:09.283Z,9.55
2023-10-27T06:25:15.502Z,7.22
2023-10-27T06:30:18.103Z,7.57
2023-10-27T06:35:19.933Z,6.32
2023-10-27T06:40:22.917Z,7.53
2023-10-27T06:45:24.755Z,8.55
2023-10-27T06:50:26.424Z,11.68
2023-10-27T06:55:28.223Z,8.90
2023-10-27T07:00:29.940Z,9.60
2023-10-27T07:05:31.616Z,12.73
2023-10-27T07:10:33.518Z,9.98
2023-10-27T07:15:35.260Z,11.63
2023-10-27T07:20:40.721Z,10.05
2023-10-27T07:25:42.580Z,12.55
2023-10-27T07:30:44.313Z,10.07
2023-10-27T07:35:47.656Z,11.55
2023-10-27T07:40:49.480Z,12.13
2023-10-27T07:45:51.205Z,9.93
2023-10-27T07:50:58.043Z,7.63
2023-10-27T07:55:59.845Z,11.68
2023-10-27T08:01:01.573Z,11.68
2023-10-27T08:06:08.672Z,9.20
2023-10-27T08:11:18.824Z,11.75
2023-10-27T08:16:20.559Z,10.40
2023-10-27T08:21:23.007Z,14.13
2023-10-27T08:26:24.762Z,15.57
2023-10-27T08:31:26.504Z,15.18
2023-10-27T08:36:28.531Z,13.77
2023-10-27T08:41:30.349Z,14.27
2023-10-27T08:46:33.490Z,15.80
2023-10-27T08:51:36.988Z,13.75
2023-10-27T08:56:38.679Z,18.75
2023-10-27T09:01:40.355Z,20.92
2023-10-27T09:06:43.072Z,19.77
2023-10-27T09:11:49.436Z,17.48
2023-10-27T09:16:52.260Z,19.35
2023-10-27T09:21:54.761Z,18.20
2023-10-27T09:27:00.784Z,19.52
2023-10-27T09:37:04.126Z,21.42
2023-10-27T09:42:07.749Z,19.27
2023-10-27T09:47:29.722Z,20.77
2023-10-27T09:52:33.005Z,19.55
2023-10-27T09:57:35.608Z,18.30
2023-10-27T10:02:38.181Z,18.27
2023-10-27T10:07:53.818Z,17.38
2023-10-27T10:13:02.840Z,18.35
2023-10-27T10:18:09.542Z,16.90
2023-10-27T10:23:11.942Z,19.23
2023-10-27T10:28:17.783Z,17.25
2023-10-27T10:38:26.555Z,15.73
2023-10-27T10:43:42.300Z,19.08
2023-10-27T10:48:46.112Z,19.20
2023-10-27T10:53:55.392Z,14.65
2023-10-27T10:58:57.639Z,15.20
2023-10-27T11:03:59.576Z,22.33
2023-10-27T11:09:01.340Z,19.15
2023-10-27T11:14:04.366Z,13.93
2023-10-27T11:19:15.789Z,13.90
2023-10-27T11:24:17.529Z,9.82
2023-10-27T11:29:19.247Z,3.45
2023-10-27T11:34:27.631Z,4.53
2023-10-27T11:39:29.715Z,3.25
2023-10-27T11:44:32.853Z,3.75
2023-10-27T11:49:34.843Z,2.88
2023-10-27T11:54:37.131Z,2.42
2023-10-27T11:59:38.864Z,1.90
2023-10-27T12:04:40.658Z,16.35
2023-10-27T12:09:42.416Z,1.17
2023-10-27T12:14:44.247Z,1.38
2023-10-27T12:19:46.270Z,2.00
2023-10-27T12:24:48.134Z,2.13
2023-10-27T12:29:50.050Z,1.63
2023-10-27T12:34:51.762Z,2.50
2023-10-27T12:39:54.603Z,3.25
2023-10-27T12:44:58.727Z,1.90
2023-10-27T12:50:01.150Z,2.38
2023-10-27T12:55:03.036Z,5.82
2023-10-27T13:00:21.907Z,6.80
2023-10-27T13:05:24.969Z,6.90
2023-10-27T13:10:26.745Z,8.13
2023-10-27T13:15:29.482Z,7.03
2023-10-27T13:20:34.766Z,5.05
2023-10-27T13:25:36.530Z,5.38
2023-10-27T13:30:38.478Z,6.40
2023-10-27T13:35:40.232Z,6.38
2023-10-27T13:40:41.934Z,7.97
2023-10-27T13:45:43.712Z,7.88
2023-10-27T13:50:45.391Z,6.53
2023-10-27T13:55:49.952Z,6.95
2023-10-27T14:00:52.120Z,6.63
2023-10-27T14:05:53.878Z,7.47
2023-10-27T14:10:55.617Z,8.20
2023-10-27T14:15:57.412Z,8.35
2023-10-27T14:21:00.538Z,8.43
2023-10-27T14:26:02.512Z,8.57
2023-10-27T14:31:07.766Z,9.20
2023-10-27T14:36:10.481Z,12.75
2023-10-27T14:41:12.436Z,9.70
2023-10-27T14:46:16.232Z,11.40
2023-10-27T14:51:20.378Z,10.38
2023-10-27T14:56:22.148Z,6.80
2023-10-27T15:01:26.228Z,21.17
2023-10-27T15:06:28.080Z,9.70
2023-10-27T15:11:29.770Z,10.98
2023-10-27T15:16:34.122Z,10.45
2023-10-27T15:21:36.025Z,13.20
2023-10-27T15:26:38.096Z,10.60
2023-10-27T15:31:40.244Z,17.02
2023-10-27T15:36:42.047Z,13.43
2023-10-27T15:41:43.813Z,11.75
2023-10-27T15:46:46.994Z,14.57
2023-10-27T15:51:49.694Z,15.38
2023-10-27T15:56:52.011Z,14.98
2023-10-27T16:01:53.789Z,20.80
2023-10-27T16:06:59.213Z,15.75
2023-10-27T16:12:01.606Z,16.98
2023-10-27T16:17:03.574Z,18.33
2023-10-27T16:22:05.375Z,18.30
2023-10-27T16:27:09.170Z,20.02
2023-10-27T16:32:10.833Z,20.05
2023-10-27T16:37:14.127Z,18.35
2023-10-27T16:42:18.240Z,19.73
2023-10-27T16:47:19.889Z,15.52
2023-10-27T16:52:21.615Z,16.23
2023-10-27T16:57:23.784Z,20.13
2023-10-27T17:02:26.739Z,16.55
2023-10-27T17:07:28.459Z,18.63
2023-10-27T17:12:30.775Z,19.05
2023-10-27T17:17:32.552Z,22.70
2023-10-27T17:22:34.248Z,17.95
2023-10-27T17:27:35.949Z,23.20
2023-10-27T17:32:39.827Z,20.10
2023-10-27T17:37:41.720Z,25.98
2023-10-27T17:42:43.431Z,23.55
2023-10-27T17:47:49.638Z,26.23
2023-10-27T17:52:51.523Z,23.15
2023-10-27T17:57:53.916Z,30.00
2023-10-27T18:02:55.632Z,29.95
2023-10-27T18:07:58.711Z,29.05
2023-10-27T18:13:00.934Z,32.35
2023-10-27T18:18:04.150Z,27.40
2023-10-27T18:23:06.736Z,29.92
2023-10-27T18:28:08.383Z,28.55
2023-10-27T18:33:10.176Z,31.02
2023-10-27T18:38:14.134Z,30.27
2023-10-27T18:43:15.796Z,33.70
2023-10-27T18:48:17.518Z,32.30
2023-10-27T18:53:19.202Z,35.05
2023-10-27T18:58:21.682Z,29.70
2023-10-27T19:03:30.754Z,37.20
2023-10-27T19:08:33.668Z,30.80
2023-10-27T19:13:36.553Z,27.20
2023-10-27T19:18:40.194Z,33.55
2023-10-27T19:23:47.303Z,30.58
2023-10-27T19:28:51.227Z,23.83
2023-10-27T19:33:53.440Z,19.80
2023-10-27T19:38:55.941Z,16.15
2023-10-27T19:43:57.799Z,20.60
2023-10-27T19:49:00.668Z,21.80
2023-10-27T19:54:02.403Z,18.52
2023-10-27T19:59:04.310Z,20.08
2023-10-27T20:04:08.045Z,20.63
2023-10-27T20:09:12.828Z,23.55
2023-10-27T20:14:14.603Z,26.13
2023-10-27T20:19:16.319Z,26.58
2023-10-27T20:24:21.175Z,30.17
2023-10-27T20:29:23.423Z,31.08
2023-10-27T20:34:26.012Z,29.13
2023-10-27T20:39:29.317Z,30.15
2023-10-27T20:44:31.055Z,30.48
2023-10-27T20:49:32.895Z,31.17
2023-10-27T20:54:34.614Z,30.95
2023-10-27T20:59:36.328Z,31.10
2023-10-27T21:04:38.102Z,29.58
2023-10-27T21:09:40.903Z,31.02
2023-10-27T21:14:42.606Z,29.88
2023-10-27T21:19:45.206Z,28.88
2023-10-27T21:24:47.373Z,30.27
2023-10-27T21:29:55.575Z,34.42
2023-10-27T21:34:57.324Z,35.25
2023-10-27T21:39:59.148Z,26.85
2023-10-27T21:45:00.814Z,26.70
2023-10-27T21:50:02.535Z,26.05
2023-10-27T21:55:04.796Z,23.27
2023-10-27T22:00:29.752Z,23.65
2023-10-27T22:10:33.742Z,19.42
2023-10-27T22:15:36.051Z,22.55
2023-10-27T22:20:37.813Z,19.98
2023-10-27T22:25:44.630Z,17.48
2023-10-27T22:30:46.600Z,14.30
2023-10-27T22:35:48.298Z,11.38
2023-10-27T22:40:51.300Z,11.50
2023-10-27T22:45:54.520Z,7.65
2023-10-27T22:50:56.486Z,6.70
2023-10-27T22:55:58.252Z,3.70
2023-10-27T23:01:00.811Z,5.68
2023-10-27T23:06:07.597Z,2.42
2023-10-27T23:11:10.950Z,3.65
2023-10-27T23:16:13.662Z,10.52
2023-10-27T23:21:15.749Z,13.30
2023-10-27T23:26:17.453Z,14.27
2023-10-27T23:31:19.686Z,6.10
2023-10-27T23:36:21.658Z,5.05
2023-10-27T23:41:24.529Z,5.78
2023-10-27T23:46:26.258Z,4.70
2023-10-27T23:51:28.760Z,4.15
2023-10-27T23:56:30.719Z,2.45
